Share

Kish Island, Iran

4:18 PM IRDT on April 23, 2014 (GMT +0430)
Kish (OIBK) Elev 98 ft | 26.53 °N, 53.98 °E | Change Station

Current weather conditions updated 48 minutes ago

Haze
Haze
88 °F
Feels Like 93 °F
N
12
Wind Variable Wind from South
Sunrise 6:23 AM
Sunset 7:21 PM
Moon Last Quarter

Tomorrow is forecast to be nearly the same temperature as today.

Pressure 29.86 in
Visibility 3.1 miles
Clouds Clear
Heat Index 93 °F
Dew Point 70 °F
Humidity 55%
Rainfall 0.00 in
Snow Depth Not available.
UV 7 out of 16
Pollen Not available.
Air Quality Not available.
Flu Activity Not available.
METAR OIBK 231100Z 18010KT 5000 HZ SKC 31/21 Q1011

More Conditions Fewer Conditions

Pressure 29.86 in
Visibility 3.1 miles
Clouds Clear
Heat Index 93 °F
Dew Point 70 °F
Humidity 55%
Rainfall 0.00 in
Snow Depth Not available.
UV 7 out of 16
Pollen Not available.
Air Quality Not available.
Flu Activity Not available.
METAR OIBK 231100Z 18010KT 5000 HZ SKC 31/21 Q1011

More Conditions Fewer Conditions

10-Day Weather Forecast

Almanac

Astronomy

Apr. 23, 2014 Rise Set
Actual Time 6:23 AM IRDT 7:21 PM IRDT
Civil Twilight 5:59 AM IRDT 7:45 PM IRDT
Nautical Twilight 5:30 AM IRDT 8:14 PM IRDT
Astronomical Twilight 5:01 AM IRDT 8:43 PM IRDT
Moon 2:01 AM IRDT 1:37 PM IRDT
Length of Visible Light 13h 46m
Length of Day
12h 58m
Tomorrow will be 1m 26s longer.
Last Quarter, 37% of the Moon is Illuminated
Today
Last Quarter
Apr 29
New
May 6
First Quarter
May 14
Full
May 21
Last Quarter

Yesterday's Extremes

Country Highs Country Lows

Community

  • April Sunset
    April Sunset
  • Waiting..
    Waiting..
  • Sunset...
    Sunset...
  • Happy outdoor day
    Happy outdoor day
  • mystic afternoon....
    mystic afternoon....

WunderPhotos

Upload Photos

1,704,247 photos uploaded!

Nearby

Snow Depth

Not available.

Coastal Water Temperatures

Place Temperature
No Stations Reporting

Earthquake Activity

City Distance Mag. Time & Date
No recent earthquake activity has been reported nearby.
Minimum magnitude displayed is 2.5.

Nearby Weather Stations

There are no personal weather stations in this area.

What do you think?

We're not finished. Please let us know what you like, what you don't like, and what you are still missing.